sensor_id;sensor_type;location;lat;lon;timestamp;P1;P2;P0
78063;PMS5003;67429;51.596;-3.264;2023-04-03T00:00:16;14;14;
78063;PMS5003;67429;51.596;-3.264;2023-04-03T00:02:42;19;18;
78063;PMS5003;67429;51.596;-3.264;2023-04-03T00:05:07;14;14;
78063;PMS5003;67429;51.596;-3.264;2023-04-03T00:07:33;17;16;
78063;PMS5003;67429;51.596;-3.264;2023-04-03T00:09:59;16;16;
78063;PMS5003;67429;51.596;-3.264;2023-04-03T00:12:24;17;17;
78063;PMS5003;67429;51.596;-3.264;2023-04-03T00:14:50;16;16;
78063;PMS5003;67429;51.596;-3.264;2023-04-03T00:17:16;16;16;
78063;PMS5003;67429;51.596;-3.264;2023-04-03T00:19:42;16;16;
78063;PMS5003;67429;51.596;-3.264;2023-04-03T00:22:08;13;13;
78063;PMS5003;67429;51.596;-3.264;2023-04-03T00:24:33;17;17;
78063;PMS5003;67429;51.596;-3.264;2023-04-03T00:26:59;20;17;
78063;PMS5003;67429;51.596;-3.264;2023-04-03T00:29:24;18;17;
78063;PMS5003;67429;51.596;-3.264;2023-04-03T00:31:50;18;18;
78063;PMS5003;67429;51.596;-3.264;2023-04-03T00:34:15;18;18;
78063;PMS5003;67429;51.596;-3.264;2023-04-03T00:36:42;19;17;
78063;PMS5003;67429;51.596;-3.264;2023-04-03T00:39:07;20;16;
78063;PMS5003;67429;51.596;-3.264;2023-04-03T00:41:33;18;18;
78063;PMS5003;67429;51.596;-3.264;2023-04-03T00:43:59;24;21;
78063;PMS5003;67429;51.596;-3.264;2023-04-03T00:46:24;20;17;
78063;PMS5003;67429;51.596;-3.264;2023-04-03T00:48:49;20;18;
78063;PMS5003;67429;51.596;-3.264;2023-04-03T00:51:16;17;16;
78063;PMS5003;67429;51.596;-3.264;2023-04-03T00:53:43;19;19;
78063;PMS5003;67429;51.596;-3.264;2023-04-03T00:56:08;19;19;
78063;PMS5003;67429;51.596;-3.264;2023-04-03T00:58:33;15;15;
78063;PMS5003;67429;51.596;-3.264;2023-04-03T01:00:58;15;15;
78063;PMS5003;67429;51.596;-3.264;2023-04-03T01:03:23;17;17;
78063;PMS5003;67429;51.596;-3.264;2023-04-03T01:05:48;16;15;
78063;PMS5003;67429;51.596;-3.264;2023-04-03T01:08:14;18;18;
78063;PMS5003;67429;51.596;-3.264;2023-04-03T01:10:40;17;17;
78063;PMS5003;67429;51.596;-3.264;2023-04-03T01:15:30;15;15;
78063;PMS5003;67429;51.596;-3.264;2023-04-03T01:17:56;17;16;
78063;PMS5003;67429;51.596;-3.264;2023-04-03T01:22:49;15;14;
78063;PMS5003;67429;51.596;-3.264;2023-04-03T01:25:12;14;12;
78063;PMS5003;67429;51.596;-3.264;2023-04-03T01:27:38;15;15;
78063;PMS5003;67429;51.596;-3.264;2023-04-03T01:30:05;14;12;
78063;PMS5003;67429;51.596;-3.264;2023-04-03T01:32:29;12;12;
78063;PMS5003;67429;51.596;-3.264;2023-04-03T01:34:55;16;15;
78063;PMS5003;67429;51.596;-3.264;2023-04-03T01:37:20;16;15;
78063;PMS5003;67429;51.596;-3.264;2023-04-03T01:39:46;14;14;
78063;PMS5003;67429;51.596;-3.264;2023-04-03T01:42:11;16;15;
78063;PMS5003;67429;51.596;-3.264;2023-04-03T01:44:36;12;12;
78063;PMS5003;67429;51.596;-3.264;2023-04-03T01:47:01;15;14;
78063;PMS5003;67429;51.596;-3.264;2023-04-03T01:49:28;12;12;
78063;PMS5003;67429;51.596;-3.264;2023-04-03T01:51:52;16;15;
78063;PMS5003;67429;51.596;-3.264;2023-04-03T01:54:18;12;10;
78063;PMS5003;67429;51.596;-3.264;2023-04-03T01:56:43;15;14;
78063;PMS5003;67429;51.596;-3.264;2023-04-03T01:59:08;12;11;
78063;PMS5003;67429;51.596;-3.264;2023-04-03T02:01:34;15;12;
78063;PMS5003;67429;51.596;-3.264;2023-04-03T02:04:00;12;12;
78063;PMS5003;67429;51.596;-3.264;2023-04-03T02:06:25;14;12;
78063;PMS5003;67429;51.596;-3.264;2023-04-03T02:08:50;14;12;
78063;PMS5003;67429;51.596;-3.264;2023-04-03T02:11:16;12;12;
78063;PMS5003;67429;51.596;-3.264;2023-04-03T02:13:41;15;15;
78063;PMS5003;67429;51.596;-3.264;2023-04-03T02:16:07;12;11;
78063;PMS5003;67429;51.596;-3.264;2023-04-03T02:18:32;15;11;
78063;PMS5003;67429;51.596;-3.264;2023-04-03T02:20:57;14;14;
78063;PMS5003;67429;51.596;-3.264;2023-04-03T02:23:23;15;12;
78063;PMS5003;67429;51.596;-3.264;2023-04-03T02:25:48;14;14;
78063;PMS5003;67429;51.596;-3.264;2023-04-03T02:28:13;11;11;
78063;PMS5003;67429;51.596;-3.264;2023-04-03T02:30:39;10;10;
78063;PMS5003;67429;51.596;-3.264;2023-04-03T02:33:04;15;14;
78063;PMS5003;67429;51.596;-3.264;2023-04-03T02:35:29;14;12;
78063;PMS5003;67429;51.596;-3.264;2023-04-03T02:37:55;12;12;
78063;PMS5003;67429;51.596;-3.264;2023-04-03T02:40:20;12;12;
78063;PMS5003;67429;51.596;-3.264;2023-04-03T02:42:45;11;11;
78063;PMS5003;67429;51.596;-3.264;2023-04-03T02:45:11;11;11;
78063;PMS5003;67429;51.596;-3.264;2023-04-03T02:47:37;15;14;
78063;PMS5003;67429;51.596;-3.264;2023-04-03T02:50:03;12;11;
78063;PMS5003;67429;51.596;-3.264;2023-04-03T02:52:28;9;9;
78063;PMS5003;67429;51.596;-3.264;2023-04-03T02:54:53;13;13;
78063;PMS5003;67429;51.596;-3.264;2023-04-03T02:57:19;12;12;
78063;PMS5003;67429;51.596;-3.264;2023-04-03T02:59:44;11;11;
78063;PMS5003;67429;51.596;-3.264;2023-04-03T03:02:10;15;14;
78063;PMS5003;67429;51.596;-3.264;2023-04-03T03:04:35;19;17;
78063;PMS5003;67429;51.596;-3.264;2023-04-03T03:07:01;14;13;
78063;PMS5003;67429;51.596;-3.264;2023-04-03T03:09:27;14;13;
78063;PMS5003;67429;51.596;-3.264;2023-04-03T03:11:52;15;14;
78063;PMS5003;67429;51.596;-3.264;2023-04-03T03:14:18;11;11;
78063;PMS5003;67429;51.596;-3.264;2023-04-03T03:16:43;13;11;
78063;PMS5003;67429;51.596;-3.264;2023-04-03T03:19:09;10;10;
78063;PMS5003;67429;51.596;-3.264;2023-04-03T03:21:39;15;15;
78063;PMS5003;67429;51.596;-3.264;2023-04-03T03:24:00;15;13;
78063;PMS5003;67429;51.596;-3.264;2023-04-03T03:26:25;17;17;
78063;PMS5003;67429;51.596;-3.264;2023-04-03T03:28:51;14;13;
78063;PMS5003;67429;51.596;-3.264;2023-04-03T03:31:16;13;13;
78063;PMS5003;67429;51.596;-3.264;2023-04-03T03:33:41;13;13;
78063;PMS5003;67429;51.596;-3.264;2023-04-03T03:36:07;13;11;
78063;PMS5003;67429;51.596;-3.264;2023-04-03T03:38:32;13;13;
78063;PMS5003;67429;51.596;-3.264;2023-04-03T03:40:58;14;14;
78063;PMS5003;67429;51.596;-3.264;2023-04-03T03:43:23;10;10;
78063;PMS5003;67429;51.596;-3.264;2023-04-03T03:45:50;14;13;
78063;PMS5003;67429;51.596;-3.264;2023-04-03T03:48:15;11;11;
78063;PMS5003;67429;51.596;-3.264;2023-04-03T03:50:40;14;14;
78063;PMS5003;67429;51.596;-3.264;2023-04-03T03:53:06;13;13;
78063;PMS5003;67429;51.596;-3.264;2023-04-03T03:55:31;13;11;
78063;PMS5003;67429;51.596;-3.264;2023-04-03T03:57:57;11;11;
78063;PMS5003;67429;51.596;-3.264;2023-04-03T04:00:22;10;10;
78063;PMS5003;67429;51.596;-3.264;2023-04-03T04:02:48;11;11;
78063;PMS5003;67429;51.596;-3.264;2023-04-03T04:05:13;14;13;
78063;PMS5003;67429;51.596;-3.264;2023-04-03T04:07:39;13;11;
78063;PMS5003;67429;51.596;-3.264;2023-04-03T04:10:04;15;13;
78063;PMS5003;67429;51.596;-3.264;2023-04-03T04:12:30;14;13;
78063;PMS5003;67429;51.596;-3.264;2023-04-03T04:14:55;14;10;
78063;PMS5003;67429;51.596;-3.264;2023-04-03T04:17:21;14;14;
78063;PMS5003;67429;51.596;-3.264;2023-04-03T04:19:46;13;11;
78063;PMS5003;67429;51.596;-3.264;2023-04-03T04:22:12;17;15;
78063;PMS5003;67429;51.596;-3.264;2023-04-03T04:24:38;13;11;
78063;PMS5003;67429;51.596;-3.264;2023-04-03T04:27:03;13;11;
78063;PMS5003;67429;51.596;-3.264;2023-04-03T04:29:29;11;11;
78063;PMS5003;67429;51.596;-3.264;2023-04-03T04:31:55;13;13;
78063;PMS5003;67429;51.596;-3.264;2023-04-03T04:34:21;14;13;
78063;PMS5003;67429;51.596;-3.264;2023-04-03T04:36:45;13;11;
78063;PMS5003;67429;51.596;-3.264;2023-04-03T04:39:12;18;16;
78063;PMS5003;67429;51.596;-3.264;2023-04-03T04:41:36;10;10;
78063;PMS5003;67429;51.596;-3.264;2023-04-03T04:44:01;10;8;
78063;PMS5003;67429;51.596;-3.264;2023-04-03T04:46:28;11;11;
78063;PMS5003;67429;51.596;-3.264;2023-04-03T04:48:53;11;11;
78063;PMS5003;67429;51.596;-3.264;2023-04-03T04:51:19;10;10;
78063;PMS5003;67429;51.596;-3.264;2023-04-03T04:53:45;10;8;
78063;PMS5003;67429;51.596;-3.264;2023-04-03T04:56:10;11;11;
78063;PMS5003;67429;51.596;-3.264;2023-04-03T04:58:35;13;12;
78063;PMS5003;67429;51.596;-3.264;2023-04-03T05:01:01;12;11;
78063;PMS5003;67429;51.596;-3.264;2023-04-03T05:03:26;17;15;
78063;PMS5003;67429;51.596;-3.264;2023-04-03T05:05:52;13;13;
78063;PMS5003;67429;51.596;-3.264;2023-04-03T05:08:18;12;11;
78063;PMS5003;67429;51.596;-3.264;2023-04-03T05:10:44;11;10;
78063;PMS5003;67429;51.596;-3.264;2023-04-03T05:13:09;12;12;
78063;PMS5003;67429;51.596;-3.264;2023-04-03T05:15:34;10;10;
78063;PMS5003;67429;51.596;-3.264;2023-04-03T05:18:01;11;11;
78063;PMS5003;67429;51.596;-3.264;2023-04-03T05:20:25;12;11;
78063;PMS5003;67429;51.596;-3.264;2023-04-03T05:22:51;10;10;
78063;PMS5003;67429;51.596;-3.264;2023-04-03T05:25:17;8;8;
78063;PMS5003;67429;51.596;-3.264;2023-04-03T05:27:42;12;11;
78063;PMS5003;67429;51.596;-3.264;2023-04-03T05:30:08;10;8;
78063;PMS5003;67429;51.596;-3.264;2023-04-03T05:32:34;13;11;
78063;PMS5003;67429;51.596;-3.264;2023-04-03T05:35:00;14;11;
78063;PMS5003;67429;51.596;-3.264;2023-04-03T05:37:26;15;11;
78063;PMS5003;67429;51.596;-3.264;2023-04-03T05:39:52;11;11;
78063;PMS5003;67429;51.596;-3.264;2023-04-03T05:42:18;10;10;
78063;PMS5003;67429;51.596;-3.264;2023-04-03T05:44:42;14;10;
78063;PMS5003;67429;51.596;-3.264;2023-04-03T05:47:08;9;9;
78063;PMS5003;67429;51.596;-3.264;2023-04-03T05:49:33;9;9;
78063;PMS5003;67429;51.596;-3.264;2023-04-03T05:51:59;12;11;
78063;PMS5003;67429;51.596;-3.264;2023-04-03T05:54:25;10;10;
78063;PMS5003;67429;51.596;-3.264;2023-04-03T05:56:50;9;9;
78063;PMS5003;67429;51.596;-3.264;2023-04-03T05:59:16;11;10;
78063;PMS5003;67429;51.596;-3.264;2023-04-03T06:01:41;10;9;
78063;PMS5003;67429;51.596;-3.264;2023-04-03T06:04:06;9;9;
78063;PMS5003;67429;51.596;-3.264;2023-04-03T06:08:57;7;7;
78063;PMS5003;67429;51.596;-3.264;2023-04-03T06:11:23;11;10;
78063;PMS5003;67429;51.596;-3.264;2023-04-03T06:13:48;9;9;
78063;PMS5003;67429;51.596;-3.264;2023-04-03T06:16:14;10;10;
78063;PMS5003;67429;51.596;-3.264;2023-04-03T06:18:39;10;10;
78063;PMS5003;67429;51.596;-3.264;2023-04-03T06:21:05;10;9;
78063;PMS5003;67429;51.596;-3.264;2023-04-03T06:23:30;9;9;
78063;PMS5003;67429;51.596;-3.264;2023-04-03T06:25:56;9;7;
78063;PMS5003;67429;51.596;-3.264;2023-04-03T06:28:21;11;10;
78063;PMS5003;67429;51.596;-3.264;2023-04-03T06:30:47;10;9;
78063;PMS5003;67429;51.596;-3.264;2023-04-03T06:33:12;13;13;
78063;PMS5003;67429;51.596;-3.264;2023-04-03T06:35:38;9;7;
78063;PMS5003;67429;51.596;-3.264;2023-04-03T06:38:03;10;9;
78063;PMS5003;67429;51.596;-3.264;2023-04-03T06:40:29;7;7;
78063;PMS5003;67429;51.596;-3.264;2023-04-03T06:42:54;10;9;
78063;PMS5003;67429;51.596;-3.264;2023-04-03T06:45:20;9;7;
78063;PMS5003;67429;51.596;-3.264;2023-04-03T06:47:45;9;7;
78063;PMS5003;67429;51.596;-3.264;2023-04-03T06:50:11;9;7;
78063;PMS5003;67429;51.596;-3.264;2023-04-03T06:52:36;12;10;
78063;PMS5003;67429;51.596;-3.264;2023-04-03T06:55:01;9;9;
78063;PMS5003;67429;51.596;-3.264;2023-04-03T06:57:28;6;6;
78063;PMS5003;67429;51.596;-3.264;2023-04-03T06:59:53;7;6;
78063;PMS5003;67429;51.596;-3.264;2023-04-03T07:02:18;9;7;
78063;PMS5003;67429;51.596;-3.264;2023-04-03T07:04:43;8;7;
78063;PMS5003;67429;51.596;-3.264;2023-04-03T07:07:09;6;6;
78063;PMS5003;67429;51.596;-3.264;2023-04-03T07:09:35;7;7;
78063;PMS5003;67429;51.596;-3.264;2023-04-03T07:12:01;6;6;
78063;PMS5003;67429;51.596;-3.264;2023-04-03T07:14:27;6;6;
78063;PMS5003;67429;51.596;-3.264;2023-04-03T07:16:52;6;6;
78063;PMS5003;67429;51.596;-3.264;2023-04-03T07:19:18;6;5;
78063;PMS5003;67429;51.596;-3.264;2023-04-03T07:21:44;7;5;
78063;PMS5003;67429;51.596;-3.264;2023-04-03T07:24:10;11;7;
78063;PMS5003;67429;51.596;-3.264;2023-04-03T07:26:35;22;21;
78063;PMS5003;67429;51.596;-3.264;2023-04-03T07:29:01;7;6;
78063;PMS5003;67429;51.596;-3.264;2023-04-03T07:31:26;8;8;
78063;PMS5003;67429;51.596;-3.264;2023-04-03T07:33:52;6;6;
78063;PMS5003;67429;51.596;-3.264;2023-04-03T07:36:18;6;4;
78063;PMS5003;67429;51.596;-3.264;2023-04-03T07:38:43;3;3;
78063;PMS5003;67429;51.596;-3.264;2023-04-03T07:41:10;17;12;
78063;PMS5003;67429;51.596;-3.264;2023-04-03T07:43:34;6;5;
78063;PMS5003;67429;51.596;-3.264;2023-04-03T07:46:00;13;8;
78063;PMS5003;67429;51.596;-3.264;2023-04-03T07:48:25;6;6;
78063;PMS5003;67429;51.596;-3.264;2023-04-03T07:50:51;5;5;
78063;PMS5003;67429;51.596;-3.264;2023-04-03T07:53:17;6;5;
78063;PMS5003;67429;51.596;-3.264;2023-04-03T07:55:43;6;3;
78063;PMS5003;67429;51.596;-3.264;2023-04-03T07:58:08;6;4;
78063;PMS5003;67429;51.596;-3.264;2023-04-03T08:00:34;4;3;
78063;PMS5003;67429;51.596;-3.264;2023-04-03T08:03:00;6;6;
78063;PMS5003;67429;51.596;-3.264;2023-04-03T08:05:26;6;5;
78063;PMS5003;67429;51.596;-3.264;2023-04-03T08:07:51;6;6;
78063;PMS5003;67429;51.596;-3.264;2023-04-03T08:10:17;6;6;
78063;PMS5003;67429;51.596;-3.264;2023-04-03T08:12:45;11;9;
78063;PMS5003;67429;51.596;-3.264;2023-04-03T08:15:09;8;7;
78063;PMS5003;67429;51.596;-3.264;2023-04-03T08:17:34;8;8;
78063;PMS5003;67429;51.596;-3.264;2023-04-03T08:20:00;7;7;
78063;PMS5003;67429;51.596;-3.264;2023-04-03T08:22:26;7;7;
78063;PMS5003;67429;51.596;-3.264;2023-04-03T08:24:52;8;7;
78063;PMS5003;67429;51.596;-3.264;2023-04-03T08:27:17;9;8;
78063;PMS5003;67429;51.596;-3.264;2023-04-03T08:29:44;9;7;
78063;PMS5003;67429;51.596;-3.264;2023-04-03T08:32:09;10;9;
78063;PMS5003;67429;51.596;-3.264;2023-04-03T08:34:35;8;7;
78063;PMS5003;67429;51.596;-3.264;2023-04-03T08:37:01;4;4;
78063;PMS5003;67429;51.596;-3.264;2023-04-03T08:39:27;8;8;
78063;PMS5003;67429;51.596;-3.264;2023-04-03T08:41:52;4;4;
78063;PMS5003;67429;51.596;-3.264;2023-04-03T08:44:21;6;6;
78063;PMS5003;67429;51.596;-3.264;2023-04-03T08:46:47;8;8;
78063;PMS5003;67429;51.596;-3.264;2023-04-03T08:49:11;8;7;
78063;PMS5003;67429;51.596;-3.264;2023-04-03T08:51:35;9;9;
78063;PMS5003;67429;51.596;-3.264;2023-04-03T08:54:02;5;5;
78063;PMS5003;67429;51.596;-3.264;2023-04-03T08:56:27;9;8;
78063;PMS5003;67429;51.596;-3.264;2023-04-03T08:58:55;7;7;
78063;PMS5003;67429;51.596;-3.264;2023-04-03T09:01:19;8;8;
78063;PMS5003;67429;51.596;-3.264;2023-04-03T09:03:44;9;8;
78063;PMS5003;67429;51.596;-3.264;2023-04-03T09:06:11;7;7;
78063;PMS5003;67429;51.596;-3.264;2023-04-03T09:08:37;8;5;
78063;PMS5003;67429;51.596;-3.264;2023-04-03T09:11:06;9;8;
78063;PMS5003;67429;51.596;-3.264;2023-04-03T09:13:29;7;7;
78063;PMS5003;67429;51.596;-3.264;2023-04-03T09:15:53;7;7;
78063;PMS5003;67429;51.596;-3.264;2023-04-03T09:18:20;5;5;
78063;PMS5003;67429;51.596;-3.264;2023-04-03T09:20:46;9;7;
78063;PMS5003;67429;51.596;-3.264;2023-04-03T09:23:14;9;9;
78063;PMS5003;67429;51.596;-3.264;2023-04-03T09:25:36;8;7;
78063;PMS5003;67429;51.596;-3.264;2023-04-03T09:28:01;8;7;
78063;PMS5003;67429;51.596;-3.264;2023-04-03T09:30:27;5;4;
78063;PMS5003;67429;51.596;-3.264;2023-04-03T09:32:54;5;5;
78063;PMS5003;67429;51.596;-3.264;2023-04-03T09:35:21;5;5;
78063;PMS5003;67429;51.596;-3.264;2023-04-03T09:37:45;5;5;
78063;PMS5003;67429;51.596;-3.264;2023-04-03T09:42:35;5;4;
78063;PMS5003;67429;51.596;-3.264;2023-04-03T09:45:03;8;8;
78063;PMS5003;67429;51.596;-3.264;2023-04-03T09:47:28;8;8;
78063;PMS5003;67429;51.596;-3.264;2023-04-03T09:50:08;8;8;
78063;PMS5003;67429;51.596;-3.264;2023-04-03T09:52:20;5;5;
78063;PMS5003;67429;51.596;-3.264;2023-04-03T09:54:44;4;4;
78063;PMS5003;67429;51.596;-3.264;2023-04-03T09:57:11;5;5;
78063;PMS5003;67429;51.596;-3.264;2023-04-03T09:59:36;6;5;
78063;PMS5003;67429;51.596;-3.264;2023-04-03T10:02:02;5;5;
78063;PMS5003;67429;51.596;-3.264;2023-04-03T10:06:53;7;7;
78063;PMS5003;67429;51.596;-3.264;2023-04-03T10:09:20;6;5;
78063;PMS5003;67429;51.596;-3.264;2023-04-03T10:14:15;7;6;
78063;PMS5003;67429;51.596;-3.264;2023-04-03T10:16:36;7;7;
78063;PMS5003;67429;51.596;-3.264;2023-04-03T10:21:29;10;7;
78063;PMS5003;67429;51.596;-3.264;2023-04-03T10:23:54;6;6;
78063;PMS5003;67429;51.596;-3.264;2023-04-03T10:26:22;6;6;
78063;PMS5003;67429;51.596;-3.264;2023-04-03T10:28:44;7;7;
78063;PMS5003;67429;51.596;-3.264;2023-04-03T10:31:10;7;7;
78063;PMS5003;67429;51.596;-3.264;2023-04-03T10:33:39;6;5;
78063;PMS5003;67429;51.596;-3.264;2023-04-03T10:36:04;4;4;
78063;PMS5003;67429;51.596;-3.264;2023-04-03T10:38:30;6;6;
78063;PMS5003;67429;51.596;-3.264;2023-04-03T10:40:54;5;5;
78063;PMS5003;67429;51.596;-3.264;2023-04-03T10:43:18;7;7;
78063;PMS5003;67429;51.596;-3.264;2023-04-03T10:45:48;5;5;
78063;PMS5003;67429;51.596;-3.264;2023-04-03T10:48:10;6;5;
78063;PMS5003;67429;51.596;-3.264;2023-04-03T10:50:38;8;8;
78063;PMS5003;67429;51.596;-3.264;2023-04-03T10:53:02;9;8;
78063;PMS5003;67429;51.596;-3.264;2023-04-03T10:55:30;6;6;
78063;PMS5003;67429;51.596;-3.264;2023-04-03T10:57:52;6;6;
78063;PMS5003;67429;51.596;-3.264;2023-04-03T11:00:18;8;8;
78063;PMS5003;67429;51.596;-3.264;2023-04-03T11:02:45;7;7;
78063;PMS5003;67429;51.596;-3.264;2023-04-03T11:05:13;7;7;
78063;PMS5003;67429;51.596;-3.264;2023-04-03T11:07:36;7;7;
78063;PMS5003;67429;51.596;-3.264;2023-04-03T11:10:00;9;8;
78063;PMS5003;67429;51.596;-3.264;2023-04-03T11:12:26;8;8;
78063;PMS5003;67429;51.596;-3.264;2023-04-03T11:14:51;7;7;
78063;PMS5003;67429;51.596;-3.264;2023-04-03T11:17:20;10;10;
78063;PMS5003;67429;51.596;-3.264;2023-04-03T11:19:42;8;8;
78063;PMS5003;67429;51.596;-3.264;2023-04-03T11:22:09;8;8;
78063;PMS5003;67429;51.596;-3.264;2023-04-03T11:24:33;8;8;
78063;PMS5003;67429;51.596;-3.264;2023-04-03T11:26:59;8;8;
78063;PMS5003;67429;51.596;-3.264;2023-04-03T11:29:25;6;6;
78063;PMS5003;67429;51.596;-3.264;2023-04-03T11:34:19;6;6;
78063;PMS5003;67429;51.596;-3.264;2023-04-03T11:36:42;8;8;
78063;PMS5003;67429;51.596;-3.264;2023-04-03T11:39:09;7;7;
78063;PMS5003;67429;51.596;-3.264;2023-04-03T11:41:32;8;8;
78063;PMS5003;67429;51.596;-3.264;2023-04-03T11:43:59;8;8;
78063;PMS5003;67429;51.596;-3.264;2023-04-03T11:48:50;11;10;
78063;PMS5003;67429;51.596;-3.264;2023-04-03T11:53:40;9;9;
78063;PMS5003;67429;51.596;-3.264;2023-04-03T11:58:32;10;10;
78063;PMS5003;67429;51.596;-3.264;2023-04-03T12:00:58;13;12;
78063;PMS5003;67429;51.596;-3.264;2023-04-03T12:05:48;11;11;
78063;PMS5003;67429;51.596;-3.264;2023-04-03T12:10:39;12;11;
78063;PMS5003;67429;51.596;-3.264;2023-04-03T12:17:56;11;11;
78063;PMS5003;67429;51.596;-3.264;2023-04-03T12:27:38;13;13;
78063;PMS5003;67429;51.596;-3.264;2023-04-03T12:30:06;13;13;
78063;PMS5003;67429;51.596;-3.264;2023-04-03T12:32:34;12;12;
78063;PMS5003;67429;51.596;-3.264;2023-04-03T12:35:05;13;13;
78063;PMS5003;67429;51.596;-3.264;2023-04-03T12:37:23;14;14;
78063;PMS5003;67429;51.596;-3.264;2023-04-03T12:42:16;12;12;
78063;PMS5003;67429;51.596;-3.264;2023-04-03T12:44:40;16;16;
78063;PMS5003;67429;51.596;-3.264;2023-04-03T12:47:04;11;11;
78063;PMS5003;67429;51.596;-3.264;2023-04-03T12:51:54;13;13;
78063;PMS5003;67429;51.596;-3.264;2023-04-03T12:54:19;15;14;
78063;PMS5003;67429;51.596;-3.264;2023-04-03T12:56:44;12;11;
78063;PMS5003;67429;51.596;-3.264;2023-04-03T12:59:15;12;12;
78063;PMS5003;67429;51.596;-3.264;2023-04-03T13:01:35;13;12;
78063;PMS5003;67429;51.596;-3.264;2023-04-03T13:04:01;14;14;
78063;PMS5003;67429;51.596;-3.264;2023-04-03T13:06:27;13;12;
78063;PMS5003;67429;51.596;-3.264;2023-04-03T13:08:52;15;15;
78063;PMS5003;67429;51.596;-3.264;2023-04-03T13:11:17;13;12;
78063;PMS5003;67429;51.596;-3.264;2023-04-03T13:16:08;14;14;
78063;PMS5003;67429;51.596;-3.264;2023-04-03T13:18:34;13;13;
78063;PMS5003;67429;51.596;-3.264;2023-04-03T13:21:01;15;15;
78063;PMS5003;67429;51.596;-3.264;2023-04-03T13:23:25;13;12;
78063;PMS5003;67429;51.596;-3.264;2023-04-03T13:25:50;20;20;
78063;PMS5003;67429;51.596;-3.264;2023-04-03T13:28:17;25;25;
78063;PMS5003;67429;51.596;-3.264;2023-04-03T13:30:41;13;13;
78063;PMS5003;67429;51.596;-3.264;2023-04-03T13:33:17;14;14;
78063;PMS5003;67429;51.596;-3.264;2023-04-03T13:35:33;13;12;
78063;PMS5003;67429;51.596;-3.264;2023-04-03T13:37:59;15;15;
78063;PMS5003;67429;51.596;-3.264;2023-04-03T13:40:23;16;16;
78063;PMS5003;67429;51.596;-3.264;2023-04-03T13:45:20;12;12;
78063;PMS5003;67429;51.596;-3.264;2023-04-03T13:47:40;15;15;
78063;PMS5003;67429;51.596;-3.264;2023-04-03T13:52:31;17;16;
78063;PMS5003;67429;51.596;-3.264;2023-04-03T13:54:56;16;16;
78063;PMS5003;67429;51.596;-3.264;2023-04-03T13:57:21;15;15;
78063;PMS5003;67429;51.596;-3.264;2023-04-03T13:59:47;16;16;
78063;PMS5003;67429;51.596;-3.264;2023-04-03T14:02:14;15;13;
78063;PMS5003;67429;51.596;-3.264;2023-04-03T14:07:03;18;17;
78063;PMS5003;67429;51.596;-3.264;2023-04-03T14:09:30;17;16;
78063;PMS5003;67429;51.596;-3.264;2023-04-03T14:11:54;15;14;
78063;PMS5003;67429;51.596;-3.264;2023-04-03T14:14:20;16;16;
78063;PMS5003;67429;51.596;-3.264;2023-04-03T14:16:46;16;16;
78063;PMS5003;67429;51.596;-3.264;2023-04-03T14:19:16;15;15;
78063;PMS5003;67429;51.596;-3.264;2023-04-03T14:21:36;19;18;
78063;PMS5003;67429;51.596;-3.264;2023-04-03T14:24:01;17;17;
78063;PMS5003;67429;51.596;-3.264;2023-04-03T14:26:27;15;13;
78063;PMS5003;67429;51.596;-3.264;2023-04-03T14:28:53;14;14;
78063;PMS5003;67429;51.596;-3.264;2023-04-03T14:31:19;16;16;
78063;PMS5003;67429;51.596;-3.264;2023-04-03T14:33:44;16;16;
78063;PMS5003;67429;51.596;-3.264;2023-04-03T14:36:11;18;18;
78063;PMS5003;67429;51.596;-3.264;2023-04-03T14:38:34;15;15;
78063;PMS5003;67429;51.596;-3.264;2023-04-03T14:41:00;17;17;
78063;PMS5003;67429;51.596;-3.264;2023-04-03T14:43:25;13;13;
78063;PMS5003;67429;51.596;-3.264;2023-04-03T14:45:51;17;16;
78063;PMS5003;67429;51.596;-3.264;2023-04-03T14:48:17;18;18;
78063;PMS5003;67429;51.596;-3.264;2023-04-03T14:50:42;16;16;
78063;PMS5003;67429;51.596;-3.264;2023-04-03T14:53:10;16;15;
78063;PMS5003;67429;51.596;-3.264;2023-04-03T14:55:33;19;19;
78063;PMS5003;67429;51.596;-3.264;2023-04-03T14:57:59;15;15;
78063;PMS5003;67429;51.596;-3.264;2023-04-03T15:00:24;18;17;
78063;PMS5003;67429;51.596;-3.264;2023-04-03T15:02:50;16;16;
78063;PMS5003;67429;51.596;-3.264;2023-04-03T15:05:16;19;17;
78063;PMS5003;67429;51.596;-3.264;2023-04-03T15:07:42;17;17;
78063;PMS5003;67429;51.596;-3.264;2023-04-03T15:12:32;16;14;
78063;PMS5003;67429;51.596;-3.264;2023-04-03T15:14:58;16;16;
78063;PMS5003;67429;51.596;-3.264;2023-04-03T15:17:23;19;18;
78063;PMS5003;67429;51.596;-3.264;2023-04-03T15:19:48;15;15;
78063;PMS5003;67429;51.596;-3.264;2023-04-03T15:22:14;15;15;
78063;PMS5003;67429;51.596;-3.264;2023-04-03T15:24:39;14;14;
78063;PMS5003;67429;51.596;-3.264;2023-04-03T15:27:05;17;17;
78063;PMS5003;67429;51.596;-3.264;2023-04-03T15:29:30;16;16;
78063;PMS5003;67429;51.596;-3.264;2023-04-03T15:31:56;15;15;
78063;PMS5003;67429;51.596;-3.264;2023-04-03T15:34:21;18;17;
78063;PMS5003;67429;51.596;-3.264;2023-04-03T15:36:47;16;16;
78063;PMS5003;67429;51.596;-3.264;2023-04-03T15:39:13;27;27;
78063;PMS5003;67429;51.596;-3.264;2023-04-03T15:41:38;33;32;
78063;PMS5003;67429;51.596;-3.264;2023-04-03T15:44:03;21;20;
78063;PMS5003;67429;51.596;-3.264;2023-04-03T15:46:29;16;15;
78063;PMS5003;67429;51.596;-3.264;2023-04-03T15:48:54;15;14;
78063;PMS5003;67429;51.596;-3.264;2023-04-03T15:51:20;17;17;
78063;PMS5003;67429;51.596;-3.264;2023-04-03T15:53:45;16;16;
78063;PMS5003;67429;51.596;-3.264;2023-04-03T15:56:10;40;40;
78063;PMS5003;67429;51.596;-3.264;2023-04-03T15:58:36;17;16;
78063;PMS5003;67429;51.596;-3.264;2023-04-03T16:01:01;16;15;
78063;PMS5003;67429;51.596;-3.264;2023-04-03T16:03:27;17;16;
78063;PMS5003;67429;51.596;-3.264;2023-04-03T16:05:52;19;19;
78063;PMS5003;67429;51.596;-3.264;2023-04-03T16:08:17;18;17;
78063;PMS5003;67429;51.596;-3.264;2023-04-03T16:10:43;16;16;
78063;PMS5003;67429;51.596;-3.264;2023-04-03T16:13:08;15;15;
78063;PMS5003;67429;51.596;-3.264;2023-04-03T16:15:34;19;18;
78063;PMS5003;67429;51.596;-3.264;2023-04-03T16:18:00;14;14;
78063;PMS5003;67429;51.596;-3.264;2023-04-03T16:20:24;17;16;
78063;PMS5003;67429;51.596;-3.264;2023-04-03T16:22:50;15;15;
78063;PMS5003;67429;51.596;-3.264;2023-04-03T16:25:15;20;20;
78063;PMS5003;67429;51.596;-3.264;2023-04-03T16:27:41;18;17;
78063;PMS5003;67429;51.596;-3.264;2023-04-03T16:30:06;17;17;
78063;PMS5003;67429;51.596;-3.264;2023-04-03T16:32:32;19;18;
78063;PMS5003;67429;51.596;-3.264;2023-04-03T16:34:57;15;15;
78063;PMS5003;67429;51.596;-3.264;2023-04-03T16:37:23;17;16;
78063;PMS5003;67429;51.596;-3.264;2023-04-03T16:39:48;16;16;
78063;PMS5003;67429;51.596;-3.264;2023-04-03T16:42:14;17;17;
78063;PMS5003;67429;51.596;-3.264;2023-04-03T16:44:39;20;19;
78063;PMS5003;67429;51.596;-3.264;2023-04-03T16:47:05;17;17;
78063;PMS5003;67429;51.596;-3.264;2023-04-03T16:49:30;16;15;
78063;PMS5003;67429;51.596;-3.264;2023-04-03T16:51:55;15;15;
78063;PMS5003;67429;51.596;-3.264;2023-04-03T16:54:20;19;19;
78063;PMS5003;67429;51.596;-3.264;2023-04-03T16:56:46;19;18;
78063;PMS5003;67429;51.596;-3.264;2023-04-03T16:59:12;22;19;